Terminal Aerodrome Forecast
Issued by NWS Charleston, WV

Current Version | Previous Version | Graphics & Text | Print | Product List | Glossary On
Versions: 1 2 3 4 5 6 7 8 9 10 11 12 13 14 15 16 17 18 19 20 21 22 23 24 25 26
000
FTUS41 KRLX 131700
TAFPKB
TAF
KPKB 131721Z 1318/1418 31008KT P6SM BKN025
     FM132000 31006KT P6SM SCT025 BKN040
     FM132300 33005KT P6SM SCT045
     FM140500 02004KT 5SM BR SKC
     FM141000 00000KT 1 1/2SM BR SCT001
     FM141400 00000KT P6SM FEW010
     FM141500 VRB03KT P6SM FEW045=

USA.gov is the U.S. government's official web portal to all federal, state and local government web resources and services.